Time;durP1;ratioP1;P1;durP2;ratioP2;P2;SDS_P1;SDS_P2;PMS_P1;PMS_P2;Temp;Humidity;BMP_temperature;BMP_pressure;BME280_temperature;BME280_humidity;BME280_pressure;Samples;Min_cycle;Max_cycle;Signal;HPM_P1;HPM_P2
2022/01/17 00:01:02;;;;;;;1.30;1.07;;;;;;;;;;5131941;27;20247;-72
2022/01/17 00:03:29;;;;;;;0.10;0.10;;;;;;;;;;5145622;27;20514;-73
2022/01/17 00:05:55;;;;;;;0.10;0.10;;;;;;;;;;5134886;27;20459;-73
2022/01/17 00:08:23;;;;;;;0.20;0.20;;;;;;;;;;5135677;27;20247;-72
2022/01/17 00:10:49;;;;;;;0.10;0.10;;;;;;;;;;5144838;27;20496;-72
2022/01/17 00:13:23;;;;;;;0.10;0.10;;;;;;;;;;5140630;27;20426;-71
2022/01/17 00:15:54;;;;;;;0.43;0.43;;;;;;;;;;5140420;27;20232;-73
2022/01/17 00:18:39;;;;;;;1.07;1.07;;;;;;;;;;5133017;27;20545;-73
2022/01/17 00:21:06;;;;;;;0.20;0.20;;;;;;;;;;5137123;27;20414;-73
2022/01/17 00:23:34;;;;;;;0.20;0.20;;;;;;;;;;5135122;27;20253;-73
2022/01/17 00:26:01;;;;;;;0.10;0.10;;;;;;;;;;5139352;27;20553;-73
2022/01/17 00:28:27;;;;;;;0.10;0.10;;;;;;;;;;5136419;27;20526;-73
2022/01/17 00:30:53;;;;;;;0.10;0.10;;;;;;;;;;5145013;27;20553;-73
2022/01/17 00:33:19;;;;;;;1.23;1.23;;;;;;;;;;5145054;27;20203;-72
2022/01/17 00:35:46;;;;;;;0.10;0.10;;;;;;;;;;5129707;27;20448;-73
2022/01/17 00:38:12;;;;;;;0.10;0.10;;;;;;;;;;5131699;27;20256;-73
2022/01/17 00:40:40;;;;;;;0.10;0.10;;;;;;;;;;5125434;27;20225;-73
2022/01/17 00:43:07;;;;;;;0.10;0.10;;;;;;;;;;5139217;27;20205;-73
2022/01/17 00:45:35;;;;;;;0.13;0.13;;;;;;;;;;5142311;27;20459;-72
2022/01/17 00:48:01;;;;;;;0.10;0.10;;;;;;;;;;5138430;27;20260;-72
2022/01/17 00:50:28;;;;;;;0.10;0.10;;;;;;;;;;5134478;27;20219;-72
2022/01/17 00:52:55;;;;;;;0.10;0.10;;;;;;;;;;5140725;27;20256;-72
2022/01/17 00:55:21;;;;;;;0.13;0.13;;;;;;;;;;5136473;27;20227;-72
2022/01/17 00:57:49;;;;;;;0.10;0.10;;;;;;;;;;5137519;27;20362;-72
2022/01/17 01:00:15;;;;;;;0.10;0.10;;;;;;;;;;5141858;27;20262;-72
2022/01/17 01:02:42;;;;;;;0.10;0.10;;;;;;;;;;5127445;27;20261;-72
2022/01/17 01:05:08;;;;;;;0.50;0.50;;;;;;;;;;5124624;27;20492;-72
2022/01/17 01:07:34;;;;;;;0.17;0.17;;;;;;;;;;5138002;27;20199;-72
2022/01/17 01:10:04;;;;;;;0.20;0.20;;;;;;;;;;5136521;27;20320;-72
2022/01/17 01:12:30;;;;;;;3.37;0.93;;;;;;;;;;5139313;27;20218;-72
2022/01/17 01:14:59;;;;;;;0.10;0.10;;;;;;;;;;5131657;27;20269;-72
2022/01/17 01:17:33;;;;;;;0.10;0.10;;;;;;;;;;5126866;27;20225;-72
2022/01/17 01:20:09;;;;;;;9.87;9.10;;;;;;;;;;5138213;27;20200;-73
2022/01/17 01:28:05;;;;;;;0.20;0.20;;;;;;;;;;5131056;27;20408;-72
2022/01/17 01:30:35;;;;;;;0.10;0.10;;;;;;;;;;5124285;28;20221;-71
2022/01/17 01:33:02;;;;;;;0.10;0.10;;;;;;;;;;5133070;27;20388;-71
2022/01/17 01:35:31;;;;;;;0.20;0.20;;;;;;;;;;5136490;27;20198;-72
2022/01/17 01:37:59;;;;;;;0.10;0.10;;;;;;;;;;5139193;27;20276;-72
2022/01/17 01:40:26;;;;;;;0.10;0.10;;;;;;;;;;5131535;27;20497;-72
2022/01/17 01:42:53;;;;;;;0.10;0.10;;;;;;;;;;5125636;27;20293;-72
2022/01/17 01:45:20;;;;;;;0.60;0.60;;;;;;;;;;5124885;27;20205;-72
2022/01/17 01:47:49;;;;;;;0.10;0.10;;;;;;;;;;5125918;27;20204;-73
2022/01/17 01:50:19;;;;;;;0.20;0.20;;;;;;;;;;5142203;27;20507;-72
2022/01/17 01:52:46;;;;;;;0.20;0.20;;;;;;;;;;5130169;27;20272;-71
2022/01/17 01:55:13;;;;;;;0.10;0.10;;;;;;;;;;5143804;27;20245;-73
2022/01/17 01:57:41;;;;;;;0.10;0.10;;;;;;;;;;5132108;27;20242;-73
2022/01/17 02:00:08;;;;;;;0.10;0.10;;;;;;;;;;5126735;27;20202;-73
2022/01/17 02:02:34;;;;;;;0.10;0.10;;;;;;;;;;5136300;27;20244;-71
2022/01/17 02:05:02;;;;;;;0.10;0.10;;;;;;;;;;5123574;28;20227;-73
2022/01/17 02:07:28;;;;;;;0.10;0.10;;;;;;;;;;5134734;27;20209;-72
2022/01/17 02:09:54;;;;;;;0.10;0.10;;;;;;;;;;5125740;27;20272;-72
2022/01/17 02:12:21;;;;;;;0.10;0.10;;;;;;;;;;5143439;27;20207;-72
2022/01/17 02:14:48;;;;;;;0.20;0.20;;;;;;;;;;5125534;27;20202;-72
2022/01/17 02:17:15;;;;;;;0.10;0.10;;;;;;;;;;5128391;27;20215;-73
2022/01/17 02:19:46;;;;;;;0.17;0.17;;;;;;;;;;5126523;27;20200;-71
2022/01/17 02:22:13;;;;;;;0.10;0.10;;;;;;;;;;5123989;28;20231;-72
2022/01/17 02:24:39;;;;;;;0.10;0.10;;;;;;;;;;5123129;28;20208;-72
2022/01/17 02:27:06;;;;;;;0.20;0.20;;;;;;;;;;5127214;28;20253;-73
2022/01/17 02:29:32;;;;;;;0.10;0.10;;;;;;;;;;5143700;27;20495;-72
2022/01/17 02:31:58;;;;;;;0.13;0.13;;;;;;;;;;5123449;27;20213;-73
2022/01/17 02:34:24;;;;;;;0.10;0.10;;;;;;;;;;5138448;28;20220;-72
2022/01/17 02:36:51;;;;;;;0.10;0.10;;;;;;;;;;5141881;27;20248;-72
2022/01/17 02:39:18;;;;;;;0.10;0.10;;;;;;;;;;5123427;28;20225;-72
2022/01/17 02:41:49;;;;;;;0.10;0.10;;;;;;;;;;5123064;28;20236;-71
2022/01/17 02:44:15;;;;;;;0.20;0.20;;;;;;;;;;5123178;28;20488;-72
2022/01/17 02:46:41;;;;;;;0.17;0.17;;;;;;;;;;5123169;28;20259;-71
2022/01/17 02:49:08;;;;;;;0.13;0.13;;;;;;;;;;5122796;28;20209;-72
2022/01/17 02:51:35;;;;;;;0.10;0.10;;;;;;;;;;5123427;28;20272;-72
2022/01/17 02:54:01;;;;;;;0.17;0.17;;;;;;;;;;5131237;28;20497;-72
2022/01/17 02:56:29;;;;;;;0.20;0.20;;;;;;;;;;5123478;28;20211;-72
2022/01/17 02:58:55;;;;;;;0.10;0.10;;;;;;;;;;5122859;28;20515;-72
2022/01/17 03:01:23;;;;;;;0.10;0.10;;;;;;;;;;5122953;28;20228;-72
2022/01/17 03:03:49;;;;;;;0.10;0.10;;;;;;;;;;5123196;28;20257;-72
2022/01/17 03:06:16;;;;;;;0.20;0.20;;;;;;;;;;5123113;28;20249;-72
2022/01/17 03:08:43;;;;;;;0.10;0.10;;;;;;;;;;5122591;28;20252;-72
2022/01/17 03:11:11;;;;;;;0.10;0.10;;;;;;;;;;5123149;28;20254;-73
2022/01/17 03:13:39;;;;;;;0.10;0.10;;;;;;;;;;5131233;28;20255;-72
2022/01/17 03:16:08;;;;;;;0.20;0.20;;;;;;;;;;5143409;27;20215;-72
2022/01/17 03:18:36;;;;;;;0.10;0.10;;;;;;;;;;5125893;27;20419;-73
2022/01/17 03:21:02;;;;;;;0.30;0.30;;;;;;;;;;5130931;28;20226;-73
2022/01/17 03:23:29;;;;;;;0.10;0.10;;;;;;;;;;5123184;28;20202;-73
2022/01/17 03:25:56;;;;;;;0.30;0.30;;;;;;;;;;5139917;28;20205;-73
2022/01/17 03:28:22;;;;;;;0.10;0.10;;;;;;;;;;5122525;28;20212;-72
2022/01/17 03:30:50;;;;;;;0.10;0.10;;;;;;;;;;5123863;28;20202;-73
2022/01/17 03:33:17;;;;;;;0.10;0.10;;;;;;;;;;5143345;27;20274;-73
2022/01/17 03:35:44;;;;;;;0.10;0.10;;;;;;;;;;5132689;27;20367;-73
2022/01/17 03:38:12;;;;;;;0.10;0.10;;;;;;;;;;5135320;27;20383;-72
2022/01/17 03:40:39;;;;;;;0.20;0.20;;;;;;;;;;5146265;27;20201;-72
2022/01/17 03:43:05;;;;;;;0.10;0.10;;;;;;;;;;5142164;27;20228;-73
2022/01/17 03:45:32;;;;;;;0.10;0.10;;;;;;;;;;5130065;27;20204;-72
2022/01/17 03:48:00;;;;;;;0.20;0.20;;;;;;;;;;5126391;27;20220;-72
2022/01/17 03:50:27;;;;;;;0.20;0.20;;;;;;;;;;5126423;27;20212;-72
2022/01/17 03:52:54;;;;;;;0.20;0.20;;;;;;;;;;5126351;27;20241;-72
2022/01/17 03:55:21;;;;;;;0.10;0.10;;;;;;;;;;5126055;27;20205;-72
2022/01/17 03:57:47;;;;;;;0.10;0.10;;;;;;;;;;5126165;27;20258;-72
2022/01/17 04:00:15;;;;;;;0.20;0.20;;;;;;;;;;5130738;27;20499;-73
2022/01/17 04:02:41;;;;;;;0.67;0.67;;;;;;;;;;5128424;27;20229;-71
2022/01/17 04:05:09;;;;;;;0.17;0.17;;;;;;;;;;5126098;27;20204;-73
2022/01/17 04:07:36;;;;;;;0.10;0.10;;;;;;;;;;5125866;28;20445;-72
2022/01/17 04:10:03;;;;;;;0.13;0.13;;;;;;;;;;5137546;27;20228;-72
2022/01/17 04:12:29;;;;;;;0.43;0.43;;;;;;;;;;5130568;27;20299;-72
2022/01/17 04:14:56;;;;;;;0.20;0.20;;;;;;;;;;5144549;27;20262;-72
2022/01/17 04:17:25;;;;;;;0.20;0.20;;;;;;;;;;5145886;27;20219;-73
2022/01/17 04:19:58;;;;;;;0.10;0.10;;;;;;;;;;5126830;27;20273;-73
2022/01/17 04:22:26;;;;;;;0.10;0.10;;;;;;;;;;5125545;27;20299;-73
2022/01/17 04:24:52;;;;;;;0.10;0.10;;;;;;;;;;5127112;27;20561;-73
2022/01/17 04:27:18;;;;;;;0.10;0.10;;;;;;;;;;5131133;27;20204;-73
2022/01/17 04:29:45;;;;;;;0.20;0.20;;;;;;;;;;5134840;27;20246;-73
2022/01/17 04:32:11;;;;;;;0.10;0.10;;;;;;;;;;5145214;27;20197;-73
2022/01/17 04:34:37;;;;;;;0.10;0.10;;;;;;;;;;5128333;27;20207;-72
2022/01/17 04:37:03;;;;;;;0.10;0.10;;;;;;;;;;5139088;27;20207;-73
2022/01/17 04:39:31;;;;;;;0.10;0.10;;;;;;;;;;5138050;27;20205;-72
2022/01/17 04:41:57;;;;;;;0.10;0.10;;;;;;;;;;5127970;27;20329;-72
2022/01/17 04:47:07;;;;;;;0.30;0.30;;;;;;;;;;5124943;28;20230;-71
2022/01/17 04:49:33;;;;;;;0.10;0.10;;;;;;;;;;5127932;27;20565;-72
2022/01/17 04:52:00;;;;;;;0.10;0.10;;;;;;;;;;5125168;27;20198;-72
2022/01/17 04:54:41;;;;;;;0.13;0.13;;;;;;;;;;5125207;28;20235;-72
2022/01/17 04:57:09;;;;;;;0.10;0.10;;;;;;;;;;5128919;27;20221;-72
2022/01/17 04:59:36;;;;;;;0.10;0.10;;;;;;;;;;5144913;27;20212;-72
2022/01/17 05:02:03;;;;;;;0.10;0.10;;;;;;;;;;5136283;27;20231;-73
2022/01/17 05:04:29;;;;;;;0.20;0.20;;;;;;;;;;5144644;27;20249;-72
2022/01/17 05:06:55;;;;;;;0.10;0.10;;;;;;;;;;5131828;27;20443;-72
2022/01/17 05:09:22;;;;;;;0.10;0.10;;;;;;;;;;5145156;27;20224;-73
2022/01/17 05:11:48;;;;;;;0.10;0.10;;;;;;;;;;5136668;27;20213;-72
2022/01/17 05:14:16;;;;;;;0.10;0.10;;;;;;;;;;5144909;27;20205;-73
2022/01/17 05:16:47;;;;;;;0.10;0.10;;;;;;;;;;5127057;27;20205;-73
2022/01/17 05:21:57;;;;;;;0.20;0.20;;;;;;;;;;5123888;27;20273;-73
2022/01/17 05:24:23;;;;;;;0.10;0.10;;;;;;;;;;5138952;27;20203;-72
2022/01/17 05:26:49;;;;;;;0.10;0.10;;;;;;;;;;5130368;27;20429;-72
2022/01/17 05:29:17;;;;;;;0.17;0.17;;;;;;;;;;5124358;28;20246;-72
2022/01/17 05:31:43;;;;;;;0.20;0.20;;;;;;;;;;5123885;28;20364;-71
2022/01/17 05:34:10;;;;;;;0.17;0.17;;;;;;;;;;5124262;27;20257;-72
2022/01/17 05:36:36;;;;;;;0.10;0.10;;;;;;;;;;5140501;27;20583;-72
2022/01/17 05:39:02;;;;;;;0.10;0.10;;;;;;;;;;5143583;27;20212;-72
2022/01/17 05:41:28;;;;;;;0.10;0.10;;;;;;;;;;5128820;27;20345;-72
2022/01/17 05:43:55;;;;;;;0.10;0.10;;;;;;;;;;5141618;27;20205;-71
2022/01/17 05:46:22;;;;;;;0.13;0.13;;;;;;;;;;5139737;27;20200;-72
2022/01/17 05:48:48;;;;;;;0.10;0.10;;;;;;;;;;5133331;27;20282;-72
2022/01/17 05:51:15;;;;;;;0.10;0.10;;;;;;;;;;5144046;27;20203;-72
2022/01/17 05:53:41;;;;;;;0.13;0.13;;;;;;;;;;5127418;27;20200;-72
2022/01/17 05:56:07;;;;;;;0.10;0.10;;;;;;;;;;5124211;27;20383;-71
2022/01/17 05:58:34;;;;;;;0.10;0.10;;;;;;;;;;5123548;28;20243;-72
2022/01/17 06:01:00;;;;;;;0.10;0.10;;;;;;;;;;5123184;28;20305;-72
2022/01/17 06:03:27;;;;;;;0.63;0.63;;;;;;;;;;5123123;28;20452;-74
2022/01/17 06:05:54;;;;;;;0.10;0.10;;;;;;;;;;5124024;28;20243;-72
2022/01/17 06:08:20;;;;;;;0.10;0.10;;;;;;;;;;5123493;28;20206;-72
2022/01/17 06:10:46;;;;;;;0.20;0.20;;;;;;;;;;5123753;28;20204;-71
2022/01/17 06:13:13;;;;;;;0.10;0.10;;;;;;;;;;5123425;27;20251;-72
2022/01/17 06:15:39;;;;;;;0.20;0.20;;;;;;;;;;5123910;27;20234;-73
2022/01/17 06:18:05;;;;;;;0.10;0.10;;;;;;;;;;5130919;27;20384;-72
2022/01/17 06:20:33;;;;;;;0.10;0.10;;;;;;;;;;5123726;28;20203;-73
2022/01/17 06:22:59;;;;;;;0.10;0.10;;;;;;;;;;5141996;27;20221;-72
2022/01/17 06:25:25;;;;;;;0.20;0.20;;;;;;;;;;5143365;27;20198;-72
2022/01/17 06:27:51;;;;;;;0.20;0.20;;;;;;;;;;5125673;27;20254;-72
2022/01/17 06:30:18;;;;;;;0.10;0.10;;;;;;;;;;5127462;28;20211;-72
2022/01/17 06:32:44;;;;;;;0.10;0.10;;;;;;;;;;5143506;27;20200;-72
2022/01/17 06:35:11;;;;;;;0.10;0.10;;;;;;;;;;5123730;27;20209;-72
2022/01/17 06:37:39;;;;;;;0.10;0.10;;;;;;;;;;5132014;28;20203;-72
2022/01/17 06:40:07;;;;;;;0.20;0.20;;;;;;;;;;5133845;28;20217;-74
2022/01/17 06:42:33;;;;;;;0.10;0.10;;;;;;;;;;5136921;27;20222;-73
2022/01/17 06:45:04;;;;;;;0.10;0.10;;;;;;;;;;5134096;28;20387;-73
2022/01/17 06:47:30;;;;;;;0.10;0.10;;;;;;;;;;5129095;27;20200;-73
2022/01/17 06:49:56;;;;;;;0.10;0.10;;;;;;;;;;5138357;28;20249;-72
2022/01/17 06:52:23;;;;;;;0.10;0.10;;;;;;;;;;5123047;28;20216;-73
2022/01/17 06:54:52;;;;;;;0.10;0.10;;;;;;;;;;5122798;28;20569;-72
2022/01/17 06:57:18;;;;;;;0.10;0.10;;;;;;;;;;5136306;28;20211;-72
2022/01/17 06:59:45;;;;;;;0.10;0.10;;;;;;;;;;5143229;27;20352;-74
2022/01/17 07:02:11;;;;;;;0.10;0.10;;;;;;;;;;5139810;28;20210;-73
2022/01/17 07:04:37;;;;;;;0.10;0.10;;;;;;;;;;5142960;27;20200;-73
2022/01/17 07:07:04;;;;;;;0.10;0.10;;;;;;;;;;5132719;27;20241;-73
2022/01/17 07:09:32;;;;;;;0.20;0.20;;;;;;;;;;5137355;28;20283;-73
2022/01/17 07:11:59;;;;;;;0.10;0.10;;;;;;;;;;5138481;27;20210;-72
2022/01/17 07:14:26;;;;;;;0.10;0.10;;;;;;;;;;5142950;27;20215;-71
2022/01/17 07:16:53;;;;;;;0.10;0.10;;;;;;;;;;5126849;27;20222;-70
2022/01/17 07:19:20;;;;;;;0.20;0.20;;;;;;;;;;5126992;27;20200;-70
2022/01/17 07:21:46;;;;;;;0.10;0.10;;;;;;;;;;5139486;27;20325;-70
2022/01/17 07:24:12;;;;;;;0.20;0.20;;;;;;;;;;5133685;27;20228;-71
2022/01/17 07:26:38;;;;;;;0.20;0.20;;;;;;;;;;5139374;27;20211;-71
2022/01/17 07:29:08;;;;;;;0.37;0.37;;;;;;;;;;5126382;27;20249;-71
2022/01/17 07:31:34;;;;;;;0.10;0.10;;;;;;;;;;5131336;27;20211;-71
2022/01/17 07:34:00;;;;;;;0.10;0.10;;;;;;;;;;5126093;28;20246;-72
2022/01/17 07:36:26;;;;;;;0.20;0.20;;;;;;;;;;5131280;27;20201;-73
2022/01/17 07:38:53;;;;;;;0.10;0.10;;;;;;;;;;5136863;27;20207;-72
2022/01/17 07:41:19;;;;;;;0.10;0.10;;;;;;;;;;5130199;27;20208;-73
2022/01/17 07:43:47;;;;;;;0.10;0.10;;;;;;;;;;5135644;27;20231;-72
2022/01/17 07:46:23;;;;;;;0.10;0.10;;;;;;;;;;5132848;27;20389;-73
2022/01/17 07:49:09;;;;;;;0.10;0.10;;;;;;;;;;5138790;27;20232;-73
2022/01/17 07:51:35;;;;;;;0.10;0.10;;;;;;;;;;5132013;27;20487;-73
2022/01/17 07:54:02;;;;;;;0.10;0.10;;;;;;;;;;5125491;27;20195;-74
2022/01/17 07:56:29;;;;;;;0.10;0.10;;;;;;;;;;5125574;28;20238;-72
2022/01/17 07:58:55;;;;;;;0.10;0.10;;;;;;;;;;5129365;27;20207;-73
2022/01/17 08:01:23;;;;;;;0.10;0.10;;;;;;;;;;5138748;27;20294;-70
2022/01/17 08:03:49;;;;;;;0.10;0.10;;;;;;;;;;5141621;27;20278;-71
2022/01/17 08:06:16;;;;;;;0.40;0.40;;;;;;;;;;5138225;27;20230;-72
2022/01/17 08:08:42;;;;;;;0.10;0.10;;;;;;;;;;5143228;27;20344;-71
2022/01/17 08:11:08;;;;;;;0.20;0.20;;;;;;;;;;5131465;27;20253;-72
2022/01/17 08:13:34;;;;;;;0.10;0.10;;;;;;;;;;5134801;27;20226;-71
2022/01/17 08:16:02;;;;;;;0.10;0.10;;;;;;;;;;5125665;27;20243;-72
2022/01/17 08:18:30;;;;;;;0.10;0.10;;;;;;;;;;5126043;27;20568;-72
2022/01/17 08:20:56;;;;;;;0.13;0.13;;;;;;;;;;5141331;27;20212;-71
2022/01/17 08:23:23;;;;;;;0.10;0.10;;;;;;;;;;5125318;28;20232;-70
2022/01/17 08:25:49;;;;;;;0.10;0.10;;;;;;;;;;5124803;28;20202;-72
2022/01/17 08:28:15;;;;;;;0.10;0.10;;;;;;;;;;5125756;28;20328;-70
2022/01/17 08:30:42;;;;;;;0.10;0.10;;;;;;;;;;5134873;27;20204;-73
2022/01/17 08:33:08;;;;;;;0.10;0.10;;;;;;;;;;5142741;27;20207;-73
2022/01/17 08:35:36;;;;;;;0.10;0.10;;;;;;;;;;5145875;27;20449;-73
2022/01/17 08:38:02;;;;;;;0.10;0.10;;;;;;;;;;5146249;27;20457;-73
2022/01/17 08:40:29;;;;;;;0.10;0.10;;;;;;;;;;5145693;27;20205;-73
2022/01/17 08:42:55;;;;;;;0.10;0.10;;;;;;;;;;5145923;27;20427;-74
2022/01/17 08:45:23;;;;;;;0.10;0.10;;;;;;;;;;5145615;27;20204;-73
2022/01/17 08:47:52;;;;;;;0.10;0.10;;;;;;;;;;5145899;27;20211;-72
2022/01/17 08:50:20;;;;;;;0.10;0.10;;;;;;;;;;5145796;27;20205;-73
2022/01/17 08:52:48;;;;;;;0.30;0.30;;;;;;;;;;5142074;27;20233;-72
2022/01/17 08:55:15;;;;;;;0.20;0.20;;;;;;;;;;5125141;28;20205;-72
2022/01/17 08:57:41;;;;;;;0.10;0.10;;;;;;;;;;5125091;28;20209;-72
2022/01/17 09:00:09;;;;;;;0.20;0.20;;;;;;;;;;5125080;28;20212;-73
2022/01/17 09:02:36;;;;;;;0.10;0.10;;;;;;;;;;5124886;28;20262;-74
2022/01/17 09:05:02;;;;;;;0.20;0.20;;;;;;;;;;5124935;28;20205;-72
2022/01/17 09:07:28;;;;;;;0.10;0.10;;;;;;;;;;5124532;28;20201;-72
2022/01/17 09:09:56;;;;;;;0.10;0.10;;;;;;;;;;5124858;28;20461;-73
2022/01/17 09:12:22;;;;;;;0.10;0.10;;;;;;;;;;5124775;28;20240;-75
2022/01/17 09:14:49;;;;;;;0.20;0.20;;;;;;;;;;5124498;28;20205;-72
2022/01/17 09:17:15;;;;;;;0.10;0.10;;;;;;;;;;5124586;28;20449;-72
2022/01/17 09:19:42;;;;;;;0.10;0.10;;;;;;;;;;5124768;28;20190;-72
2022/01/17 09:22:09;;;;;;;0.10;0.10;;;;;;;;;;5124648;28;20205;-70
2022/01/17 09:24:36;;;;;;;0.10;0.10;;;;;;;;;;5124790;28;20230;-72
2022/01/17 09:27:04;;;;;;;0.10;0.10;;;;;;;;;;5124336;28;20212;-72
2022/01/17 09:29:30;;;;;;;0.20;0.20;;;;;;;;;;5124184;28;20206;-72
2022/01/17 09:31:57;;;;;;;0.10;0.10;;;;;;;;;;5124425;28;20504;-72
2022/01/17 09:34:23;;;;;;;0.10;0.10;;;;;;;;;;5129471;27;20196;-72
2022/01/17 09:36:49;;;;;;;0.17;0.17;;;;;;;;;;5123423;28;20226;-73
2022/01/17 09:39:16;;;;;;;0.10;0.10;;;;;;;;;;5124766;28;20496;-72
2022/01/17 09:41:42;;;;;;;0.10;0.10;;;;;;;;;;5130421;27;20209;-70
2022/01/17 09:44:10;;;;;;;0.20;0.20;;;;;;;;;;5123964;28;20222;-70
2022/01/17 09:46:40;;;;;;;0.20;0.20;;;;;;;;;;5133104;27;20212;-70
2022/01/17 09:49:20;;;;;;;0.10;0.10;;;;;;;;;;5145001;27;20224;-70
2022/01/17 09:52:08;;;;;;;0.10;0.10;;;;;;;;;;5139046;27;20200;-70
2022/01/17 09:54:36;;;;;;;0.10;0.10;;;;;;;;;;5124119;27;20506;-70
2022/01/17 09:57:06;;;;;;;0.10;0.10;;;;;;;;;;5143330;27;20235;-71
2022/01/17 09:59:34;;;;;;;0.10;0.10;;;;;;;;;;5125890;27;20201;-71
2022/01/17 10:02:00;;;;;;;0.10;0.10;;;;;;;;;;5124067;28;20562;-72
2022/01/17 10:04:26;;;;;;;0.10;0.10;;;;;;;;;;5123551;28;20419;-71
2022/01/17 10:06:54;;;;;;;0.10;0.10;;;;;;;;;;5143768;27;20253;-71
2022/01/17 10:09:23;;;;;;;0.13;0.13;;;;;;;;;;5136639;27;20537;-72
2022/01/17 10:11:59;;;;;;;0.10;0.10;;;;;;;;;;5144406;27;20208;-73
2022/01/17 10:14:26;;;;;;;0.10;0.10;;;;;;;;;;5143757;27;20201;-72
2022/01/17 10:16:54;;;;;;;0.10;0.10;;;;;;;;;;5144273;27;20205;-71
2022/01/17 10:19:24;;;;;;;0.10;0.10;;;;;;;;;;5144210;27;20248;-72
2022/01/17 10:21:53;;;;;;;0.10;0.10;;;;;;;;;;5143786;27;20200;-72
2022/01/17 10:24:25;;;;;;;1.43;1.43;;;;;;;;;;5136213;27;20229;-72
2022/01/17 10:27:05;;;;;;;0.10;0.10;;;;;;;;;;5123149;28;20193;-72
2022/01/17 10:35:18;;;;;;;0.10;0.10;;;;;;;;;;5123282;28;20499;-72
2022/01/17 10:38:07;;;;;;;0.20;0.20;;;;;;;;;;5123600;28;20483;-71
2022/01/17 10:40:35;;;;;;;0.10;0.10;;;;;;;;;;5123436;28;20379;-70
2022/01/17 10:43:04;;;;;;;0.10;0.10;;;;;;;;;;5123113;28;20379;-70
2022/01/17 10:45:33;;;;;;;0.10;0.10;;;;;;;;;;5123083;28;20228;-70
2022/01/17 10:48:02;;;;;;;0.10;0.10;;;;;;;;;;5124627;28;20246;-73
2022/01/17 10:50:29;;;;;;;0.10;0.10;;;;;;;;;;5127772;28;20616;-70
2022/01/17 10:52:56;;;;;;;0.10;0.10;;;;;;;;;;5127519;28;20249;-70
2022/01/17 10:55:24;;;;;;;0.10;0.10;;;;;;;;;;5127136;28;20212;-71
2022/01/17 10:57:53;;;;;;;0.10;0.10;;;;;;;;;;5127419;27;20211;-71
2022/01/17 11:00:20;;;;;;;0.10;0.10;;;;;;;;;;5128345;27;20277;-72
2022/01/17 11:02:47;;;;;;;0.13;0.13;;;;;;;;;;5136381;27;20245;-71
2022/01/17 11:05:15;;;;;;;0.10;0.10;;;;;;;;;;5147771;27;20295;-72
2022/01/17 11:07:42;;;;;;;0.20;0.20;;;;;;;;;;5133717;27;20440;-70
2022/01/17 11:10:20;;;;;;;0.20;0.20;;;;;;;;;;5127078;28;20229;-70
2022/01/17 11:12:46;;;;;;;0.10;0.10;;;;;;;;;;5127024;27;20572;-71
2022/01/17 11:15:13;;;;;;;0.10;0.10;;;;;;;;;;5146263;27;20505;-71
2022/01/17 11:17:46;;;;;;;0.10;0.10;;;;;;;;;;5136045;27;20212;-71
2022/01/17 11:20:13;;;;;;;0.10;0.10;;;;;;;;;;5143659;27;20184;-71
2022/01/17 11:22:41;;;;;;;0.10;0.10;;;;;;;;;;5132858;27;20401;-70
2022/01/17 11:25:08;;;;;;;0.10;0.10;;;;;;;;;;5126774;27;20224;-70
2022/01/17 11:27:35;;;;;;;0.20;0.20;;;;;;;;;;5127129;28;20211;-70
2022/01/17 11:30:01;;;;;;;0.20;0.20;;;;;;;;;;5132361;27;20208;-70
2022/01/17 11:32:27;;;;;;;0.10;0.10;;;;;;;;;;5147105;27;20463;-69
2022/01/17 11:34:57;;;;;;;0.10;0.10;;;;;;;;;;5141046;27;20203;-71
2022/01/17 11:37:23;;;;;;;0.10;0.10;;;;;;;;;;5146832;27;20212;-70
2022/01/17 11:39:52;;;;;;;0.10;0.10;;;;;;;;;;5130269;27;20205;-72
2022/01/17 11:42:28;;;;;;;0.10;0.10;;;;;;;;;;5126391;28;20202;-71
2022/01/17 11:44:54;;;;;;;0.20;0.20;;;;;;;;;;5126663;27;20220;-70
2022/01/17 11:47:35;;;;;;;0.10;0.10;;;;;;;;;;5128195;27;20205;-70
2022/01/17 11:50:16;;;;;;;0.20;0.20;;;;;;;;;;5126094;28;20212;-69
2022/01/17 11:52:43;;;;;;;0.20;0.20;;;;;;;;;;5136000;27;20257;-70
2022/01/17 11:55:10;;;;;;;0.10;0.10;;;;;;;;;;5138536;27;20296;-70
2022/01/17 11:57:37;;;;;;;0.10;0.10;;;;;;;;;;5128991;27;20212;-72
2022/01/17 12:00:05;;;;;;;0.10;0.10;;;;;;;;;;5136132;27;20227;-72
2022/01/17 12:02:36;;;;;;;0.10;0.10;;;;;;;;;;5133724;27;20203;-72
2022/01/17 12:05:21;;;;;;;0.10;0.10;;;;;;;;;;5130000;27;20236;-72
2022/01/17 12:07:50;;;;;;;0.10;0.10;;;;;;;;;;5138093;27;20204;-72
2022/01/17 12:10:19;;;;;;;0.10;0.10;;;;;;;;;;5134418;27;20231;-70
2022/01/17 12:13:06;;;;;;;0.10;0.10;;;;;;;;;;5133357;27;20249;-71
2022/01/17 12:15:55;;;;;;;0.10;0.10;;;;;;;;;;5128788;27;20204;-71
2022/01/17 12:18:28;;;;;;;0.10;0.10;;;;;;;;;;5129591;27;20218;-71
2022/01/17 12:20:54;;;;;;;0.17;0.17;;;;;;;;;;5137141;27;20275;-71
2022/01/17 12:23:24;;;;;;;0.20;0.20;;;;;;;;;;5144268;27;20202;-70
2022/01/17 12:25:53;;;;;;;0.20;0.20;;;;;;;;;;5146232;27;20537;-71
2022/01/17 12:28:23;;;;;;;0.13;0.13;;;;;;;;;;5133788;27;20215;-72
2022/01/17 12:30:50;;;;;;;0.10;0.10;;;;;;;;;;5125423;28;20205;-70
2022/01/17 12:33:30;;;;;;;0.20;0.20;;;;;;;;;;5125697;27;20245;-70
2022/01/17 12:35:57;;;;;;;0.20;0.20;;;;;;;;;;5125576;28;20193;-70
2022/01/17 12:38:30;;;;;;;0.20;0.20;;;;;;;;;;5125039;28;20229;-70
2022/01/17 12:40:58;;;;;;;0.10;0.10;;;;;;;;;;5125108;28;20478;-72
2022/01/17 12:43:27;;;;;;;0.17;0.17;;;;;;;;;;5129889;27;20214;-71
2022/01/17 12:45:56;;;;;;;0.10;0.10;;;;;;;;;;5145966;27;20228;-71
2022/01/17 12:48:24;;;;;;;0.87;0.87;;;;;;;;;;5141186;27;20204;-70
2022/01/17 12:50:52;;;;;;;0.10;0.10;;;;;;;;;;5125113;28;20203;-70
2022/01/17 12:53:21;;;;;;;0.20;0.20;;;;;;;;;;5130556;27;20245;-71
2022/01/17 12:55:48;;;;;;;0.20;0.20;;;;;;;;;;5142807;27;20559;-68
2022/01/17 12:58:18;;;;;;;0.20;0.20;;;;;;;;;;5138186;27;20241;-70
2022/01/17 13:00:46;;;;;;;0.10;0.10;;;;;;;;;;5137004;27;20257;-70
2022/01/17 13:03:13;;;;;;;0.20;0.20;;;;;;;;;;5134106;27;20499;-70
2022/01/17 13:05:40;;;;;;;0.17;0.17;;;;;;;;;;5139972;27;20227;-70
2022/01/17 13:08:06;;;;;;;0.20;0.20;;;;;;;;;;5136900;27;20239;-69
2022/01/17 13:10:33;;;;;;;0.83;0.83;;;;;;;;;;5138566;27;20581;-69
2022/01/17 13:13:00;;;;;;;0.10;0.10;;;;;;;;;;5126954;27;20527;-69
2022/01/17 13:15:28;;;;;;;0.10;0.10;;;;;;;;;;5124418;28;20250;-69
2022/01/17 13:17:55;;;;;;;0.20;0.20;;;;;;;;;;5131655;27;20519;-70
2022/01/17 13:20:21;;;;;;;0.20;0.20;;;;;;;;;;5134916;27;20215;-71
2022/01/17 13:22:58;;;;;;;0.10;0.10;;;;;;;;;;5145150;27;20285;-71
2022/01/17 13:25:26;;;;;;;0.10;0.10;;;;;;;;;;5124464;28;20307;-70
2022/01/17 13:27:54;;;;;;;0.20;0.20;;;;;;;;;;5141135;27;20212;-70
2022/01/17 13:30:20;;;;;;;0.10;0.10;;;;;;;;;;5136563;27;20204;-70
2022/01/17 13:32:48;;;;;;;0.10;0.10;;;;;;;;;;5135958;27;20206;-71
2022/01/17 13:35:20;;;;;;;0.20;0.20;;;;;;;;;;5129396;27;20407;-70
2022/01/17 13:37:46;;;;;;;0.10;0.10;;;;;;;;;;5144070;27;20196;-70
2022/01/17 13:40:14;;;;;;;0.10;0.10;;;;;;;;;;5144905;27;20204;-71
2022/01/17 13:42:47;;;;;;;0.20;0.20;;;;;;;;;;5144432;27;20203;-72
2022/01/17 13:45:13;;;;;;;0.20;0.20;;;;;;;;;;5127055;27;20222;-71
2022/01/17 13:47:40;;;;;;;0.10;0.10;;;;;;;;;;5124149;28;20204;-70
2022/01/17 13:50:09;;;;;;;0.10;0.10;;;;;;;;;;5123910;28;20205;-72
2022/01/17 13:52:35;;;;;;;0.20;0.20;;;;;;;;;;5126945;27;20340;-71
2022/01/17 13:55:01;;;;;;;0.10;0.10;;;;;;;;;;5142460;27;20199;-71
2022/01/17 13:57:27;;;;;;;0.10;0.10;;;;;;;;;;5124065;28;20244;-71
2022/01/17 13:59:55;;;;;;;0.20;0.20;;;;;;;;;;5141164;27;20210;-71
2022/01/17 14:02:21;;;;;;;0.10;0.10;;;;;;;;;;5144464;27;20204;-70
2022/01/17 14:04:48;;;;;;;0.10;0.10;;;;;;;;;;5136503;27;20527;-69
2022/01/17 14:07:22;;;;;;;0.10;0.10;;;;;;;;;;5129340;27;20235;-70
2022/01/17 14:09:48;;;;;;;0.10;0.10;;;;;;;;;;5135939;27;20272;-72
2022/01/17 14:12:15;;;;;;;0.10;0.10;;;;;;;;;;5128003;27;20248;-71
2022/01/17 14:14:47;;;;;;;0.20;0.20;;;;;;;;;;5130648;27;20253;-72
2022/01/17 14:17:22;;;;;;;0.13;0.13;;;;;;;;;;5128175;27;20273;-71
2022/01/17 14:19:49;;;;;;;0.10;0.10;;;;;;;;;;5131803;27;20193;-71
2022/01/17 14:22:17;;;;;;;0.13;0.13;;;;;;;;;;5143463;27;20203;-71
2022/01/17 14:24:45;;;;;;;0.17;0.17;;;;;;;;;;5128359;27;20236;-72
2022/01/17 14:27:14;;;;;;;0.10;0.10;;;;;;;;;;5143128;27;20231;-71
2022/01/17 14:29:42;;;;;;;0.20;0.20;;;;;;;;;;5128663;27;20298;-71
2022/01/17 14:32:09;;;;;;;0.10;0.10;;;;;;;;;;5132461;28;20203;-71
2022/01/17 14:34:37;;;;;;;0.10;0.10;;;;;;;;;;5144223;27;20203;-71
2022/01/17 14:37:05;;;;;;;0.10;0.10;;;;;;;;;;5144157;27;20371;-71
2022/01/17 14:39:32;;;;;;;0.20;0.20;;;;;;;;;;5144083;27;20202;-69
2022/01/17 14:42:05;;;;;;;0.13;0.13;;;;;;;;;;5134520;27;20265;-71
2022/01/17 14:44:32;;;;;;;0.20;0.20;;;;;;;;;;5131120;28;20202;-72
2022/01/17 14:46:59;;;;;;;0.17;0.17;;;;;;;;;;5123296;27;20212;-71
2022/01/17 14:49:27;;;;;;;0.13;0.13;;;;;;;;;;5125664;28;20206;-71
2022/01/17 14:51:55;;;;;;;0.10;0.10;;;;;;;;;;5129105;28;20204;-70
2022/01/17 14:54:27;;;;;;;0.20;0.20;;;;;;;;;;5131777;28;20202;-71
2022/01/17 14:59:47;;;;;;;0.10;0.10;;;;;;;;;;5125772;28;20232;-71
2022/01/17 15:02:20;;;;;;;0.13;0.13;;;;;;;;;;5134570;28;20223;-71
2022/01/17 15:04:46;;;;;;;0.20;0.20;;;;;;;;;;5125864;28;20214;-71
2022/01/17 15:07:15;;;;;;;0.20;0.20;;;;;;;;;;5125973;28;20203;-71